createdAt,value
2022-11-16T00:00:24.335Z,11.54
2022-11-16T00:02:50.583Z,11.58
2022-11-16T00:05:16.814Z,11.61
2022-11-16T00:07:43.065Z,11.62
2022-11-16T00:10:09.311Z,11.64
2022-11-16T00:12:35.551Z,11.69
2022-11-16T00:15:01.792Z,11.81
2022-11-16T00:17:28.050Z,11.89
2022-11-16T00:19:54.291Z,11.96
2022-11-16T00:22:20.542Z,12.09
2022-11-16T00:24:46.773Z,12.00
2022-11-16T00:27:13.010Z,12.15
2022-11-16T00:29:39.241Z,12.31
2022-11-16T00:32:05.478Z,12.27
2022-11-16T00:34:31.703Z,12.14
2022-11-16T00:36:57.944Z,12.04
2022-11-16T00:39:24.190Z,12.00
2022-11-16T00:41:50.433Z,11.97
2022-11-16T00:44:16.686Z,12.09
2022-11-16T00:46:42.923Z,11.96
2022-11-16T00:49:09.166Z,11.91
2022-11-16T00:51:35.409Z,11.93
2022-11-16T00:54:01.655Z,11.92
2022-11-16T00:56:27.894Z,11.94
2022-11-16T00:58:54.139Z,11.96
2022-11-16T01:01:20.396Z,11.94
2022-11-16T01:03:46.680Z,11.90
2022-11-16T01:06:12.928Z,11.90
2022-11-16T01:08:39.167Z,11.90
2022-11-16T01:11:05.494Z,11.97
2022-11-16T01:13:31.721Z,12.01
2022-11-16T01:15:57.950Z,12.05
2022-11-16T01:18:24.186Z,12.15
2022-11-16T01:20:50.413Z,12.18
2022-11-16T01:23:16.649Z,12.13
2022-11-16T01:25:42.893Z,12.16
2022-11-16T01:28:09.116Z,12.15
2022-11-16T01:30:35.370Z,12.22
2022-11-16T01:33:01.605Z,12.16
2022-11-16T01:35:27.863Z,12.23
2022-11-16T01:37:54.124Z,12.19
2022-11-16T01:40:20.355Z,12.16
2022-11-16T01:42:46.589Z,12.19
2022-11-16T01:45:12.809Z,12.14
2022-11-16T01:47:39.075Z,12.17
2022-11-16T01:50:05.324Z,12.13
2022-11-16T01:52:31.559Z,12.06
2022-11-16T01:54:57.794Z,12.15
2022-11-16T01:57:24.030Z,12.12
2022-11-16T01:59:50.266Z,12.21
2022-11-16T02:02:16.486Z,12.27
2022-11-16T02:04:42.810Z,12.09
2022-11-16T02:07:09.089Z,12.15
2022-11-16T02:09:35.333Z,12.38
2022-11-16T02:12:01.581Z,12.11
2022-11-16T02:14:27.822Z,12.03
2022-11-16T02:16:54.058Z,12.09
2022-11-16T02:19:20.281Z,12.07
2022-11-16T02:21:46.914Z,11.99
2022-11-16T02:24:13.150Z,12.02
2022-11-16T02:26:39.388Z,11.91
2022-11-16T02:29:05.640Z,11.81
2022-11-16T02:31:31.892Z,11.75
2022-11-16T02:33:58.144Z,11.91
2022-11-16T02:36:24.392Z,11.80
2022-11-16T02:38:50.637Z,11.64
2022-11-16T02:41:16.876Z,11.68
2022-11-16T02:43:43.119Z,11.74
2022-11-16T02:46:09.358Z,11.78
2022-11-16T02:48:36.021Z,11.83
2022-11-16T02:51:02.420Z,11.79
2022-11-16T02:53:28.664Z,12.16
2022-11-16T02:55:54.912Z,12.15
2022-11-16T02:58:21.150Z,12.12
2022-11-16T03:00:47.411Z,12.22
2022-11-16T03:03:13.728Z,12.21
2022-11-16T03:05:39.954Z,12.12
2022-11-16T03:08:06.192Z,12.11
2022-11-16T03:10:32.422Z,12.00
2022-11-16T03:12:58.717Z,11.93
2022-11-16T03:15:24.955Z,11.91
2022-11-16T03:17:51.190Z,11.92
2022-11-16T03:20:17.425Z,11.92
2022-11-16T03:22:43.664Z,11.95
2022-11-16T03:25:09.912Z,11.95
2022-11-16T03:27:36.152Z,11.92
2022-11-16T03:30:02.408Z,11.88
2022-11-16T03:32:28.662Z,11.99
2022-11-16T03:34:54.900Z,12.00
2022-11-16T03:37:21.146Z,12.01
2022-11-16T03:39:47.398Z,11.98
2022-11-16T03:42:13.640Z,12.17
2022-11-16T03:44:39.990Z,12.17
2022-11-16T03:47:06.240Z,12.07
2022-11-16T03:49:32.483Z,12.18
2022-11-16T03:51:58.736Z,12.17
2022-11-16T03:54:24.982Z,12.00
2022-11-16T03:56:51.227Z,12.04
2022-11-16T03:59:17.470Z,11.94
2022-11-16T04:01:45.042Z,11.90
2022-11-16T04:04:11.391Z,11.85
2022-11-16T04:06:37.620Z,11.90
2022-11-16T04:09:03.877Z,11.97
2022-11-16T04:11:30.127Z,11.94
2022-11-16T04:13:56.383Z,11.87
2022-11-16T04:16:22.620Z,11.83
2022-11-16T04:18:48.980Z,11.88
2022-11-16T04:21:15.219Z,12.00
2022-11-16T04:23:41.457Z,12.01
2022-11-16T04:26:07.708Z,11.98
2022-11-16T04:28:34.294Z,11.84
2022-11-16T04:31:00.672Z,11.81
2022-11-16T04:33:26.926Z,11.74
2022-11-16T04:35:53.166Z,11.64
2022-11-16T04:38:19.403Z,11.63
2022-11-16T04:40:45.650Z,11.57
2022-11-16T04:43:11.890Z,11.51
2022-11-16T04:45:38.128Z,11.53
2022-11-16T04:48:04.373Z,11.55
2022-11-16T04:50:30.712Z,11.54
2022-11-16T04:52:57.078Z,11.57
2022-11-16T04:55:23.324Z,11.58
2022-11-16T04:57:49.563Z,11.62
2022-11-16T05:00:15.833Z,11.59
2022-11-16T05:02:42.068Z,11.61
2022-11-16T05:05:08.309Z,11.71
2022-11-16T05:07:34.612Z,11.73
2022-11-16T05:10:00.880Z,11.72
2022-11-16T05:12:27.123Z,11.62
2022-11-16T05:14:53.362Z,11.72
2022-11-16T05:17:19.599Z,11.72
2022-11-16T05:19:45.836Z,11.78
2022-11-16T05:22:12.091Z,11.76
2022-11-16T05:24:38.327Z,11.62
2022-11-16T05:27:04.553Z,11.57
2022-11-16T05:29:30.787Z,11.52
2022-11-16T05:31:57.015Z,11.50
2022-11-16T05:34:23.245Z,11.47
2022-11-16T05:36:49.473Z,11.50
2022-11-16T05:39:15.807Z,11.48
2022-11-16T05:41:42.036Z,11.48
2022-11-16T05:44:08.277Z,11.49
2022-11-16T05:46:34.510Z,11.46
2022-11-16T05:49:00.749Z,11.48
2022-11-16T05:51:27.000Z,11.48
2022-11-16T05:53:53.246Z,11.50
2022-11-16T05:56:19.559Z,11.45
2022-11-16T05:58:45.849Z,11.47
2022-11-16T06:01:12.082Z,11.39
2022-11-16T06:03:38.305Z,11.44
2022-11-16T06:06:04.600Z,11.39
2022-11-16T06:08:30.986Z,11.47
2022-11-16T06:10:57.397Z,11.57
2022-11-16T06:13:23.639Z,11.47
2022-11-16T06:15:55.309Z,11.35
2022-11-16T06:18:21.549Z,11.43
2022-11-16T06:20:47.811Z,11.46
2022-11-16T06:23:14.054Z,11.55
2022-11-16T06:25:40.408Z,11.38
2022-11-16T06:28:08.080Z,11.18
2022-11-16T06:30:34.666Z,11.01
2022-11-16T06:33:00.909Z,10.94
2022-11-16T06:35:27.144Z,10.96
2022-11-16T06:37:53.373Z,11.01
2022-11-16T06:40:19.603Z,11.06
2022-11-16T06:42:45.844Z,11.06
2022-11-16T06:45:12.120Z,11.07
2022-11-16T06:47:38.373Z,11.08
2022-11-16T06:50:04.618Z,11.10
2022-11-16T06:52:30.846Z,11.14
2022-11-16T06:54:57.075Z,11.14
2022-11-16T06:57:23.317Z,11.09
2022-11-16T06:59:49.552Z,11.06
2022-11-16T07:02:15.853Z,11.11
2022-11-16T07:04:42.106Z,11.13
2022-11-16T07:07:08.384Z,11.08
2022-11-16T07:09:34.621Z,11.09
2022-11-16T07:12:00.866Z,11.11
2022-11-16T07:14:27.104Z,11.11
2022-11-16T07:16:59.043Z,11.10
2022-11-16T07:19:26.084Z,11.11
2022-11-16T07:21:52.323Z,11.18
2022-11-16T07:24:18.558Z,11.21
2022-11-16T07:26:44.791Z,11.19
2022-11-16T07:29:11.033Z,11.21
2022-11-16T07:31:37.262Z,11.19
2022-11-16T07:34:03.502Z,11.27
2022-11-16T07:36:29.735Z,11.28
2022-11-16T07:38:55.967Z,11.26
2022-11-16T07:41:22.203Z,11.30
2022-11-16T07:43:52.766Z,11.34
2022-11-16T07:46:45.385Z,11.43
2022-11-16T07:49:10.873Z,11.46
2022-11-16T07:51:37.675Z,11.53
2022-11-16T07:54:03.928Z,11.57
2022-11-16T07:56:30.443Z,11.57
2022-11-16T07:58:56.673Z,11.72
2022-11-16T08:01:22.934Z,11.74
2022-11-16T08:03:49.209Z,11.74
2022-11-16T08:06:15.449Z,11.75
2022-11-16T08:08:41.690Z,11.91
2022-11-16T08:11:07.932Z,11.94
2022-11-16T08:13:34.225Z,11.98
2022-11-16T08:16:00.462Z,12.16
2022-11-16T08:18:26.686Z,12.23
2022-11-16T08:20:52.930Z,12.23
2022-11-16T08:23:19.170Z,12.12
2022-11-16T08:25:45.403Z,12.11
2022-11-16T08:28:11.648Z,12.09
2022-11-16T08:30:37.887Z,12.09
2022-11-16T08:33:04.119Z,12.25
2022-11-16T08:35:30.351Z,12.25
2022-11-16T08:37:56.598Z,12.23
2022-11-16T08:40:22.837Z,11.99
2022-11-16T08:42:49.080Z,12.06
2022-11-16T08:45:15.319Z,12.13
2022-11-16T08:47:41.572Z,12.16
2022-11-16T08:50:07.835Z,12.20
2022-11-16T08:52:34.107Z,12.33
2022-11-16T08:55:00.343Z,12.28
2022-11-16T08:57:26.589Z,12.44
2022-11-16T08:59:52.823Z,12.49
2022-11-16T09:02:19.049Z,12.54
2022-11-16T09:04:45.283Z,12.49
2022-11-16T09:07:11.582Z,12.46
2022-11-16T09:09:37.876Z,12.50
2022-11-16T09:12:04.131Z,12.67
2022-11-16T09:14:30.373Z,12.80
2022-11-16T09:16:56.607Z,12.81
2022-11-16T09:19:22.845Z,12.83
2022-11-16T09:21:49.078Z,12.91
2022-11-16T09:24:15.314Z,13.00
2022-11-16T09:26:41.910Z,12.97
2022-11-16T09:29:08.153Z,13.10
2022-11-16T09:31:34.389Z,13.05
2022-11-16T09:34:00.626Z,13.09
2022-11-16T09:36:26.862Z,13.04
2022-11-16T09:41:39.314Z,13.08
2022-11-16T09:44:05.543Z,13.29
2022-11-16T09:46:31.767Z,13.18
2022-11-16T09:48:58.007Z,13.17
2022-11-16T09:51:24.246Z,13.26
2022-11-16T09:53:50.506Z,13.36
2022-11-16T09:56:21.859Z,13.38
2022-11-16T09:58:48.621Z,13.34
2022-11-16T10:01:14.929Z,13.32
2022-11-16T10:03:41.201Z,13.29
2022-11-16T10:06:07.476Z,13.32
2022-11-16T10:08:33.918Z,13.37
2022-11-16T10:11:00.319Z,13.40
2022-11-16T10:13:26.566Z,13.27
2022-11-16T10:15:52.818Z,13.31
2022-11-16T10:18:19.060Z,13.35
2022-11-16T10:20:45.303Z,13.30
2022-11-16T10:23:11.537Z,13.27
2022-11-16T10:25:37.775Z,13.29
2022-11-16T10:28:04.012Z,13.43
2022-11-16T10:30:30.243Z,13.37
2022-11-16T10:32:56.512Z,13.30
2022-11-16T10:35:22.777Z,13.35
2022-11-16T10:37:49.002Z,13.44
2022-11-16T10:40:15.243Z,13.37
2022-11-16T10:42:41.487Z,13.30
2022-11-16T10:45:07.826Z,13.34
2022-11-16T10:47:34.207Z,13.31
2022-11-16T10:50:00.542Z,13.36
2022-11-16T10:52:26.803Z,13.38
2022-11-16T10:54:53.092Z,13.41
2022-11-16T10:57:19.338Z,13.42
2022-11-16T10:59:45.579Z,13.50
2022-11-16T11:02:11.859Z,13.63
2022-11-16T11:04:38.094Z,13.68
2022-11-16T11:07:04.453Z,13.69
2022-11-16T11:09:30.707Z,13.75
2022-11-16T11:11:56.936Z,13.80
2022-11-16T11:14:23.176Z,13.84
2022-11-16T11:16:49.411Z,13.91
2022-11-16T11:19:15.667Z,13.96
2022-11-16T11:21:41.898Z,13.99
2022-11-16T11:24:42.154Z,13.98
2022-11-16T11:26:54.348Z,14.05
2022-11-16T11:29:20.570Z,14.17
2022-11-16T11:31:46.798Z,14.14
2022-11-16T11:34:13.063Z,14.20
2022-11-16T11:36:39.316Z,14.13
2022-11-16T11:39:05.619Z,14.23
2022-11-16T11:41:31.883Z,14.33
2022-11-16T11:43:58.138Z,14.31
2022-11-16T11:46:34.527Z,14.30
2022-11-16T11:49:10.599Z,14.38
2022-11-16T11:51:36.836Z,14.40
2022-11-16T11:54:03.107Z,14.43
2022-11-16T11:56:29.477Z,14.47
2022-11-16T11:58:55.757Z,14.34
2022-11-16T12:01:25.281Z,14.26
2022-11-16T12:03:51.923Z,14.15
2022-11-16T12:06:18.157Z,14.21
2022-11-16T12:08:44.400Z,14.23
2022-11-16T12:11:10.734Z,14.32
2022-11-16T12:13:37.322Z,14.17
2022-11-16T12:16:03.725Z,14.21
2022-11-16T12:18:29.969Z,14.37
2022-11-16T12:20:56.260Z,14.43
2022-11-16T12:23:22.499Z,14.36
2022-11-16T12:25:48.766Z,14.45
2022-11-16T12:28:15.008Z,14.46
2022-11-16T12:30:41.230Z,14.42
2022-11-16T12:33:07.562Z,14.37
2022-11-16T12:35:33.801Z,14.47
2022-11-16T12:38:00.035Z,14.37
2022-11-16T12:40:26.275Z,14.49
2022-11-16T12:42:52.510Z,14.41
2022-11-16T12:45:18.769Z,14.38
2022-11-16T12:47:45.053Z,14.43
2022-11-16T12:50:11.397Z,14.49
2022-11-16T12:52:37.673Z,14.48
2022-11-16T12:55:25.415Z,14.45
2022-11-16T12:57:50.119Z,14.61
2022-11-16T13:00:16.362Z,14.65
2022-11-16T13:02:42.607Z,14.66
2022-11-16T13:05:08.839Z,14.62
2022-11-16T13:07:35.115Z,14.77
2022-11-16T13:10:01.377Z,14.69
2022-11-16T13:12:27.613Z,14.65
2022-11-16T13:14:53.866Z,14.67
2022-11-16T13:17:20.093Z,14.70
2022-11-16T13:19:46.322Z,14.71
2022-11-16T13:22:12.569Z,14.77
2022-11-16T13:24:38.824Z,14.85
2022-11-16T13:27:05.052Z,14.74
2022-11-16T13:29:31.285Z,14.86
2022-11-16T13:31:57.517Z,14.82
2022-11-16T13:34:23.769Z,14.82
2022-11-16T13:36:50.125Z,14.93
2022-11-16T13:39:21.943Z,14.98
2022-11-16T13:41:48.720Z,14.77
2022-11-16T13:44:14.950Z,14.78
2022-11-16T13:46:55.221Z,14.75
2022-11-16T13:49:22.299Z,14.81
2022-11-16T13:51:48.538Z,14.88
2022-11-16T13:57:00.997Z,14.77
2022-11-16T13:59:27.449Z,14.72
2022-11-16T14:01:53.687Z,14.79
2022-11-16T14:04:19.914Z,14.65
2022-11-16T14:06:46.159Z,14.58
2022-11-16T14:09:12.386Z,14.63
2022-11-16T14:11:38.624Z,14.74
2022-11-16T14:14:04.875Z,14.73
2022-11-16T14:16:31.105Z,14.80
2022-11-16T14:18:57.353Z,14.76
2022-11-16T14:21:23.578Z,14.84
2022-11-16T14:23:49.814Z,14.75
2022-11-16T14:26:16.057Z,14.70
2022-11-16T14:28:42.289Z,14.69
2022-11-16T14:31:08.526Z,14.59
2022-11-16T14:33:35.073Z,14.49
2022-11-16T14:36:01.522Z,14.46
2022-11-16T14:38:27.770Z,14.37
2022-11-16T14:40:59.113Z,14.39
2022-11-16T14:43:26.027Z,14.40
2022-11-16T14:45:52.264Z,14.56
2022-11-16T14:48:18.508Z,14.54
2022-11-16T14:50:44.747Z,14.51
2022-11-16T14:53:10.981Z,14.54
2022-11-16T14:55:37.212Z,14.68
2022-11-16T14:58:03.438Z,14.69
2022-11-16T15:00:29.689Z,14.66
2022-11-16T15:03:02.134Z,14.61
2022-11-16T15:05:28.964Z,14.49
2022-11-16T15:07:55.213Z,14.48
2022-11-16T15:10:21.457Z,14.57
2022-11-16T15:12:47.702Z,14.61
2022-11-16T15:15:13.937Z,14.62
2022-11-16T15:17:40.170Z,14.57
2022-11-16T15:20:06.498Z,14.56
2022-11-16T15:22:33.839Z,14.58
2022-11-16T15:25:00.081Z,14.67
2022-11-16T15:27:26.332Z,14.72
2022-11-16T15:29:52.588Z,14.83
2022-11-16T15:32:18.838Z,14.89
2022-11-16T15:34:45.069Z,14.95
2022-11-16T15:37:11.305Z,14.98
2022-11-16T15:39:37.562Z,14.96
2022-11-16T15:42:04.456Z,14.93
2022-11-16T15:44:30.792Z,14.83
2022-11-16T15:46:57.029Z,14.65
2022-11-16T15:49:23.300Z,14.50
2022-11-16T15:51:49.542Z,14.35
2022-11-16T15:54:15.774Z,14.19
2022-11-16T15:56:42.066Z,14.15
2022-11-16T15:59:08.307Z,14.13
2022-11-16T16:01:34.583Z,14.05
2022-11-16T16:04:00.903Z,13.97
2022-11-16T16:06:27.261Z,13.89
2022-11-16T16:08:53.505Z,13.79
2022-11-16T16:11:23.969Z,13.82
2022-11-16T16:13:52.802Z,13.71
2022-11-16T16:16:19.048Z,13.72
2022-11-16T16:18:45.293Z,13.68
2022-11-16T16:21:11.531Z,13.65
2022-11-16T16:23:37.784Z,13.54
2022-11-16T16:26:04.014Z,13.49
2022-11-16T16:28:30.277Z,13.46
2022-11-16T16:30:56.530Z,13.35
2022-11-16T16:33:22.764Z,13.39
2022-11-16T16:35:49.012Z,13.38
2022-11-16T16:38:15.257Z,13.40
2022-11-16T16:40:41.502Z,13.38
2022-11-16T16:43:07.748Z,13.39
2022-11-16T16:45:34.082Z,13.38
2022-11-16T16:48:00.319Z,13.34
2022-11-16T16:50:26.556Z,13.24
2022-11-16T16:52:52.800Z,13.26
2022-11-16T16:55:19.032Z,13.16
2022-11-16T16:57:45.292Z,13.11
2022-11-16T17:00:11.522Z,13.04
2022-11-16T17:02:37.760Z,13.01
2022-11-16T17:05:04.011Z,12.96
2022-11-16T17:07:30.312Z,12.88
2022-11-16T17:09:56.616Z,12.86
2022-11-16T17:12:22.846Z,12.79
2022-11-16T17:14:49.087Z,12.70
2022-11-16T17:17:15.325Z,12.66
2022-11-16T17:19:41.553Z,12.60
2022-11-16T17:22:07.780Z,12.53
2022-11-16T17:24:34.023Z,12.62
2022-11-16T17:27:00.272Z,12.56
2022-11-16T17:29:26.517Z,12.56
2022-11-16T17:31:52.748Z,12.59
2022-11-16T17:34:18.998Z,12.59
2022-11-16T17:36:45.236Z,12.64
2022-11-16T17:39:11.462Z,12.65
2022-11-16T17:41:37.695Z,12.67
2022-11-16T17:44:03.935Z,12.70
2022-11-16T17:46:30.172Z,12.62
2022-11-16T17:48:56.419Z,12.52
2022-11-16T17:51:22.668Z,12.59
2022-11-16T17:53:48.905Z,12.61
2022-11-16T17:56:15.151Z,12.62
2022-11-16T17:58:41.381Z,12.58
2022-11-16T18:01:07.679Z,12.64
2022-11-16T18:03:34.186Z,12.57
2022-11-16T18:06:00.652Z,12.52
2022-11-16T18:08:26.908Z,12.51
2022-11-16T18:10:53.142Z,12.49
2022-11-16T18:13:19.465Z,12.47
2022-11-16T18:15:45.711Z,12.38
2022-11-16T18:18:11.966Z,12.32
2022-11-16T18:20:38.216Z,12.28
2022-11-16T18:23:04.469Z,12.23
2022-11-16T18:25:30.731Z,12.16
2022-11-16T18:27:56.978Z,12.08
2022-11-16T18:30:23.229Z,12.01
2022-11-16T18:32:49.489Z,11.85
2022-11-16T18:35:15.744Z,11.70
2022-11-16T18:37:41.996Z,11.61
2022-11-16T18:40:08.242Z,11.61
2022-11-16T18:42:34.499Z,11.71
2022-11-16T18:45:00.739Z,11.80
2022-11-16T18:47:26.989Z,11.70
2022-11-16T18:49:53.230Z,11.71
2022-11-16T18:52:19.474Z,11.66
2022-11-16T18:54:45.743Z,11.58
2022-11-16T18:57:11.983Z,11.45
2022-11-16T18:59:38.221Z,11.42
2022-11-16T19:02:04.476Z,11.31
2022-11-16T19:04:30.740Z,11.31
2022-11-16T19:06:57.078Z,11.34
2022-11-16T19:09:23.363Z,11.29
2022-11-16T19:11:49.607Z,11.30
2022-11-16T19:14:15.842Z,11.37
2022-11-16T19:16:49.992Z,11.26
2022-11-16T19:19:18.927Z,11.17
2022-11-16T19:21:45.193Z,11.23
2022-11-16T19:24:11.426Z,11.29
2022-11-16T19:26:37.664Z,11.20
2022-11-16T19:29:03.899Z,11.09
2022-11-16T19:31:30.145Z,11.16
2022-11-16T19:33:56.388Z,11.16
2022-11-16T19:36:22.644Z,11.28
2022-11-16T19:38:48.870Z,11.34
2022-11-16T19:41:15.106Z,11.39
2022-11-16T19:43:41.343Z,11.49
2022-11-16T19:46:07.588Z,11.63
2022-11-16T19:48:33.825Z,11.59
2022-11-16T19:51:00.081Z,11.48
2022-11-16T19:53:26.323Z,11.33
2022-11-16T19:55:52.569Z,11.28
2022-11-16T19:58:18.807Z,11.34
2022-11-16T20:00:45.086Z,11.23
2022-11-16T20:03:11.348Z,11.18
2022-11-16T20:05:37.586Z,11.22
2022-11-16T20:08:03.836Z,11.40
2022-11-16T20:10:30.087Z,11.43
2022-11-16T20:12:56.340Z,11.45
2022-11-16T20:15:22.585Z,11.48
2022-11-16T20:17:48.849Z,11.50
2022-11-16T20:20:15.095Z,11.58
2022-11-16T20:22:41.348Z,11.65
2022-11-16T20:25:07.592Z,11.83
2022-11-16T20:27:33.840Z,11.86
2022-11-16T20:30:03.737Z,11.74
2022-11-16T20:32:32.770Z,11.73
2022-11-16T20:34:59.005Z,11.96
2022-11-16T20:37:25.251Z,12.04
2022-11-16T20:39:51.492Z,11.94
2022-11-16T20:42:17.726Z,12.09
2022-11-16T20:44:43.980Z,12.03
2022-11-16T20:47:10.228Z,11.95
2022-11-16T20:49:36.476Z,12.09
2022-11-16T20:52:02.726Z,12.08
2022-11-16T20:54:28.967Z,12.04
2022-11-16T20:56:55.216Z,12.14
2022-11-16T20:59:21.461Z,12.20
2022-11-16T21:01:47.844Z,12.19
2022-11-16T21:04:14.234Z,12.21
2022-11-16T21:06:40.467Z,12.14
2022-11-16T21:09:06.696Z,12.15
2022-11-16T21:11:32.934Z,12.17
2022-11-16T21:13:59.176Z,12.22
2022-11-16T21:16:25.416Z,12.19
2022-11-16T21:18:51.648Z,12.17
2022-11-16T21:21:17.885Z,12.19
2022-11-16T21:23:44.111Z,12.21
2022-11-16T21:26:10.343Z,12.21
2022-11-16T21:28:36.588Z,12.27
2022-11-16T21:31:02.845Z,12.29
2022-11-16T21:33:29.112Z,12.07
2022-11-16T21:35:55.351Z,12.17
2022-11-16T21:38:21.589Z,12.22
2022-11-16T21:40:47.841Z,12.23
2022-11-16T21:43:14.180Z,12.25
2022-11-16T21:45:40.419Z,12.14
2022-11-16T21:48:06.646Z,12.22
2022-11-16T21:50:32.892Z,12.25
2022-11-16T21:52:59.145Z,12.28
2022-11-16T21:55:25.415Z,12.45
2022-11-16T21:57:51.664Z,12.32
2022-11-16T22:00:17.901Z,12.26
2022-11-16T22:02:44.141Z,12.27
2022-11-16T22:05:10.391Z,12.27
2022-11-16T22:07:36.773Z,12.12
2022-11-16T22:10:03.148Z,12.10
2022-11-16T22:12:29.394Z,12.01
2022-11-16T22:14:55.626Z,11.99
2022-11-16T22:17:21.882Z,11.87
2022-11-16T22:19:48.113Z,12.00
2022-11-16T22:22:14.346Z,12.09
2022-11-16T22:24:40.735Z,11.97
2022-11-16T22:27:07.222Z,11.97
2022-11-16T22:29:33.460Z,11.98
2022-11-16T22:31:59.720Z,12.03
2022-11-16T22:34:26.059Z,12.07
2022-11-16T22:36:52.294Z,12.15
2022-11-16T22:39:18.540Z,12.14
2022-11-16T22:41:44.797Z,12.16
2022-11-16T22:44:11.026Z,12.18
2022-11-16T22:46:37.265Z,12.16
2022-11-16T22:49:03.502Z,12.15
2022-11-16T22:51:29.796Z,12.06
2022-11-16T22:53:56.037Z,11.95
2022-11-16T22:56:22.354Z,11.95
2022-11-16T22:58:48.591Z,11.66
2022-11-16T23:01:14.826Z,11.50
2022-11-16T23:03:41.333Z,11.55
2022-11-16T23:06:07.737Z,11.56
2022-11-16T23:08:33.967Z,11.61
2022-11-16T23:11:00.203Z,11.68
2022-11-16T23:13:26.446Z,11.62
2022-11-16T23:15:52.696Z,11.70
2022-11-16T23:18:18.934Z,11.65
2022-11-16T23:20:45.169Z,11.58
2022-11-16T23:23:11.421Z,11.60
2022-11-16T23:25:37.654Z,11.74
2022-11-16T23:28:03.882Z,11.74
2022-11-16T23:30:30.134Z,11.71
2022-11-16T23:32:56.361Z,11.68
2022-11-16T23:35:22.606Z,11.56
2022-11-16T23:37:48.847Z,11.60
2022-11-16T23:40:15.109Z,11.86
2022-11-16T23:42:41.370Z,11.86
2022-11-16T23:45:07.606Z,11.91
2022-11-16T23:47:33.839Z,11.89
2022-11-16T23:50:00.100Z,11.79
2022-11-16T23:52:26.340Z,11.69
2022-11-16T23:54:52.578Z,11.62
2022-11-16T23:57:18.807Z,11.61
2022-11-16T23:59:45.042Z,11.61
